Accueil
METAR-TAF:

METAR-TAF

Aéroports :

Greenwood County Airport

Greenwood, Caroline du Sud, États-Unis

latitude: 34-14-50N, longitude: 082-09-17W, altitude: 192 m

Observation

Le bulletin a été fait il y a 29 minutes, à 21:56 UTC
Vent calme
Température 13°C
Humidité 62%
Pression 1022 hPa
Visibilité: 16.1 km
Ciel clair

METAR: KGRD 202156Z AUTO 00000KT 10SM CLR 13/06 A3018 RMK AO2 SLP219 T01330056

Heure: 17:25 (22:25 UTC)


TAF: absent

Observations et prévisions météorologiques de plus de 4000 aéroports (messages METAR et TAF).

Les stations disponibles sont représentées par des disques jaunes et rouges sur la carte.

Passer la souris dessus pour voir le nom de la station.

Cliquer dessus pour voir les observations et prévisions météorologiques.

Pour changer de carte: cliquez sur les boutons verts avec une croix noire pour zoomer, sur le bouton vert avec un tiret pour effectuer un zoom arrière, ou sur les flèches vertes pour les cartes adjacentes.


METAR-TAF: